Timeline UpdatesTrip UpdatesNews PostsPvt PostsTravel TipsAdmin PostsConv PostsFollowed PostsChat RequestsBlog PostsPNR Posts

Disclaimer
Search
 
 
Sat Sep 20, 2014 19:32:06 ISTHomeTrainsΣChainsAtlasPNRForumGalleryNewsFAQTripsMembersLoginFeedback
No Recent News for this Train
Other Trains in the News **new
Latest...
Cancelled on 20/5/14.
Mon May 19, 2014 (06:12PM)
⇐ Return Journey: Train# 13008

13007/Udyan Abha Toofan Express

Time-Table HAS CHANGED.
Sep 03 (10:30AM)
Change Departure Station:
Change Arrival Station:
Post a Train Travel TipPost a Train Travel Tip **new
Post a Comment/Question/Picture/VideoPost a Comment/Question/Picture/Video
Inaugural Run
Wed Jan 01, 1930
Pantry/Catering
✕ NO Pantry Car
✕ NO Catering
Loco/Rake Reversals
AGC/Agra Cantt. (6);
RSA - Rake Sharing
Rake/Coach Composition
LOCO-SLR-GEN-GEN-B1-S5-S4-S3-S2-S1-GEN-GEN-SLR-HCPV-HCPV.
Loco
HWH-NDLS: HWH WAP-4 NDLS-SGNR: TKD WDM-3A
News    PNR    Forum    Time-Table    Availability    Fare Chart    Map    Arr/Dep History    Trips    Gallery    ΣChains    X/O    Timeline    
Travel Time: 33h 27m    87 halts    Distance: 1545 km    Avg Speed: 46 km/hr
Type: Mail/Express
Zone: ER/Eastern
Departs @ 09:35
Platform# 11
SMTWTFS
Kolkata Howrah Junction/HWH 
Arrives @ 19:02 +1 night
Platform# ???
SMTWTFS
Okhla/OKA 

87 halts. 291 intermediate Stations between Kolkata Howrah Junction and Okhla

Show ALL intermediate Stations  Show Old Time-Table

#CodeStation NameX/OArrivesAvgDepartsAvgHaltPFDay#KmSpeedElevZoneAddress
1HWHKolkata Howrah Junction (23)»  -09:35-1110.04210mERHowrah 711101, West Bengal
2BDCBandel Junction (7)X  10:32-10:37-5m--139.57014mERdist - HOOGHLY, West Bengal
3BWNBarddhaman Junction (8)X  11:35-11:40-5m--1106.78234mERDist - Barddhaman, West Bengal
4PANPanagarh (4)  12:15-12:16-1m--1154.75570mERKaksa, West Bengal
5DGRDurgapur (5)X  12:33-12:35-2m31170.37971mERDurgapur, West Bengal
6UDLAndal Junction (6)X  12:48-12:50-2m--1187.36286mERAndal, West Bengal
7RNGRaniGanj (4)X  12:57-12:58-1m--1194.63492mERRaniganj, West Bengal
8ASNAsansol Junction (7)X  13:30-13:35-5m41212.740113mERDist - Bardhaman, West Bengal
9STNSitarampur Junction (5)  13:48-13:50-2m--1221.558139mERG T Rd Before Asansol, West Bengal
10CRJChittaranjan (3)X  14:07-14:08-1m31237.866182mERMihijam, Jharkhand
11JMTJamtara (2)X  14:21-14:22-1m11252.163201mERJamtara, Jharkhand
12VDSVidyasagar (2)X  14:39-14:40-1m--1270.066250mERJamtara, Jharkhand
13MDPMadhupur Junction (4)  15:02-15:12-10m21294.267254mER06432-224478, Jharkhand
14JSMEJasidih Junction (5)  15:38-15:43-5m--1323.280271mERJasidih, Jharkhand
15STLSimultala (2)X  16:02-16:03-1m--1348.730247mERSimultala, Bihar
16JAJJhajha (4)  16:40-16:45-5m31367.462143mECRJhajha, Bihar
17GHRGidhaur (2)X  16:56-16:57-1m--1378.873106mECRState Highway 18, Bihar
18JMUJamui (3)X  17:09-17:10-1m--1393.49481mECRState Highway 72, Bihar
19MNPMananpur (2)  17:23-17:24-1m--1413.71757mECRState Highway 18, Bihar
20BSQPBansipur (2)  17:33-17:34-1m--1416.32653mECRKiul, Bihar
21KIULKiul Junction (5)X  17:44-17:48-4m31420.61253mECRDist. Lakhisarai, Bihar
22LKRLuckeesarai Junction (2)X  17:55-17:56-1m--1422.05652mECRLakhisarai, Bihar
23MKBMankatha  18:03 18:02-18:04-1 2m--1427.63547mECRNational Highway 80, Bihar
24DMRXDumri Halt (1)  18:13-18:14-1m11432.86449mECRNational Highway 80, Bihar
25BRYABarhiya (3)  18:19 18:18-18:20-1 2m--1437.15647mECRBarahiya, Bihar
26HTZHathidah Junction (2)  18:30-18:31-1m21446.55650mECRMusahari, Bihar
27MKAMokama Junction (4)X  18:40-18:44-4m--1454.97348mECRPatna, Bihar
28MORMor (2)X  18:50-18:51-1m--1462.26146mECRMor, Bihar
29PHKPunarakh (2)  19:00 18:59-19:01-1 2m--1470.46851mECRPunarakh, Bihar
30BARHBarh (3)  19:11 19:10-19:12-1 2m--1480.67849mECRBarh, Bihar
31ATLAthmal Gola (2)XO  19:20 19:19-19:21-1 2m--1489.72252mECRPatna, Bihar
32BKPBakhtiyarpur Junction (5)X  19:46-19:48-2m--1498.78951mECRPatna, Bihar
33KOOKhusropur (2)  19:59 19:58-20:00-1 2m--1513.56352mECRPatna, Bihar
34FUTFatwa (6)  20:09 20:08-20:10-1 2m--1522.08153mECRPatna, Bihar
35PNCPatna Saheb (3)X  20:20 20:19-20:21-1 2m--1534.23059mECRPatna 800008, Bihar
36GZHGulzarbagh (3)X  20:28 20:27-20:29-1 2m--1537.22055mECRPatna, Bihar
37PNBEPatna Junction (10)X  20:50-21:00-10m41544.13857mECRPatna 800001, Bihar
38DNRDanapur (5)O  21:15-21:25-10m--1553.57358mECRKhagaul, Bihar
39NEONeora (2)X  21:31 21:30-21:32-1 2m--1559.57161mECRNational Highway 98, Bihar
40SDESadisopur (2)  21:39 21:38-21:40-1 2m--1566.66364mECRSadisopur, Bihar
41BTABihta (2)X  21:45 21:44-21:46-1 2m--1570.84862mECRDistt: Patna, Bihar
42KWRKoelwar (2)O  21:57-21:58-1m--1579.63665mECRNational Highway 30, Bihar
43KUAKulharia (2)  22:05 22:04-22:06-1 2m--1583.15461mECRChandi Sahar Rd, Bihar
44ARAAra Junction (3)  22:17-22:22-5m--1593.09963mECRarrah( 06182-233411), Bihar
45BEABihiya (3)  22:36 22:35-22:37-1 2m--1614.45967mECRBehea, Bihar
46BYNBanahi (2)  22:44 22:43-22:45-1 2m--1620.46667mECRBanahi, Bihar
47RPRRaghunathpur (4)  22:54 22:53-22:55-1 2m--1629.28069mECRRaghunathpur, Bihar
48DUREDumraon (3)  23:08 23:07-23:09-1 2m--1645.26170mECRDumraon, Bihar
49BXRBuxar (3)X  23:25-23:30-5m--1661.58067mECRBuxar, Bihar
50DLNDildarnagar Junction (2)  23:57-23:59-2m--1697.75872mECRDildarnagar, Uttar Pradesh
51ZNAZamania (2)XO  00:13-00:14-1m--2711.22077mECRGhazipur, Uttar Pradesh
52MGSMughal Sarai Junction (8)XO  02:25-02:40-15m--2755.45583mECRMughalsarai 232101, Uttar Pradesh
53CARChunar Junction (5)  03:15-03:16-1m22787.37085mNCRChunar Junction, Uttar Pradesh
54MZPMirzapur (3)X  03:47 03:43-03:48-1 5m--2818.65588mNCRMirzapur, Uttar Pradesh
55BDLVindhyachal (3)O  03:57 03:56-03:58-1 2m--2825.97488mNCRMirzapur, Uttar Pradesh
56ALDAllahabad Junction (10)X  05:05-05:15-10m22908.279100mNCRAllahabad 211003, Uttar Pradesh
57BREBharwariX  05:44 05:43-05:45-1 2m--2945.275108mNCRBharwari, Uttar Pradesh
58SROSirathu (2)  06:01-06:02-1m12965.374109mNCRSirathu, Uttar Pradesh
59KGAKhaga (3)X  06:23 06:22-06:24-1 2m--2990.258114mNCRFatehpur, Uttar Pradesh
60FTPFatehpur (3)XO  07:04 07:00-07:05-1 5m--21024.989120mNCRFatehpur, Uttar Pradesh
61BKOBindki Road  07:27 07:26-07:28-1 2m--21056.249124mNCRFatehpur, Uttar Pradesh
62CNBKanpur Central (10)O  08:25-08:40-15m221102.525128mNCRKANPUR-208 001, Uttar Pradesh
63GOYGovindpuri Junction (2)  08:49-08:50-1m--21106.251129mNCRKANPUR-208 006, Uttar Pradesh
64PNKPanki (3)  08:59-09:00-1m--21113.989129mNCRKANPUR-208 020, Uttar Pradesh
65RURARura (4)X  09:23 09:22-09:24-1 2m--21146.776137mNCRJhinjhak, Uttar Pradesh
66JJKJhinjhak (3)  09:40 09:39-09:41-1 2m321165.779140mNCRAuraiya, Uttar Pradesh
67PHDPhaphund (4)X  09:57 09:56-09:58-1 2m--21185.672146mNCRdist. Auraiya, Uttar Pradesh
68ULDAchalda (3)X  10:13 10:12-10:14-1 2m--21202.378147mNCRDist. Auraiya(05688-1072), Uttar Pradesh
69BNTBharthana (3)X  10:30 10:29-10:31-1 2m--21221.963147mNCRBharthana, Uttar Pradesh
70ETWEtawah (5)  10:54 10:50-10:55-1 5m221241.787154mNCRDistt. Etawah, Uttar Pradesh
71JGRJaswantnagar (2)X  11:07 11:06-11:08-1 2m--21257.773154mNCRJaswantnagar, Uttar Pradesh
72BDNBhadan (2)  11:25 11:24-11:26-1 2m--21277.263160mNCRFirozabad, Uttar Pradesh
73SKBShikohabad Junction (4)X  11:49 11:45-11:50-1 5m321297.138166mNCRDistrict Firozabad, Uttar Pradesh
74FZDFirozabad (4)  12:21-12:22-1m321317.023164mNCRFirozabad, Uttar Pradesh
75TDLTundla Junction (5)  13:05-13:15-10m221333.621167mNCRDistt.Firozabad, Uttar Pradesh
76AFAgra Fort (3)  14:20-14:25-5m221356.516170mNCRRakabganj, Uttar Pradesh
77IDHIdgah Agra Junction (3)  14:34 14:33-14:35-1 2m--21358.65168mNCRAgra, Uttar Pradesh
78AGCAgra Cantt. (6)XO15:00-15:20-20m321360.813174mNCRAgra, Uttar Pradesh
79RKMRaja Ki Mandi (4)  15:38-15:39-1m121364.865170mNCRAgra, Uttar Pradesh
80MTJMathura Junction (10)  16:25-16:33-8m221414.575179mNCRMathura, Uttar Pradesh
81CHJChata (4)X  16:59 16:58-17:00-1 2m--21445.756 NCRChhata, Uttar Pradesh
82KSVKosi Kalan (3)X  17:12 17:11-17:13-1 2m121456.055189mNCRKosi Kalan, Uttar Pradesh
83PWLPalwal (8)X  17:59-18:00-1m--21498.456200mNRPalwal, Haryana
84ASTAsaoti (5)  18:12-18:13-1m321509.759203mNRAsaoti, Haryana
85BVHBallabgarh (5)  18:23-18:24-1m--21519.650203mNRFaridabad, Haryana
86FDNFaridabad New Town (3)X  18:29-18:30-1m--21523.747204mNRFaridabad, Haryana
87FDBFaridabad (4)  18:35-18:36-1m221527.748206mNRold Faridabad, Haryana
88TKDTuglakabad (4)X  18:50-18:51-1m--21538.833213mNRNear Tughlakabad Metro Station, Delhi NCT
89OKAOkhla (4)•  19:02-19:03-1m--21544.822221mNRIshwar Nagar Mathura Road, Delhi NCT
90NZMDelhi Hazrat Nizamuddin (7)XO  19:15 19:13-19:17 19:15-2m321548.529209mNRNew Delhi 110013, Delhi NCT
91TKJTilak Bridge (4)  19:23 19:25-19:24 19:26-1m--21553.210214mNRNew Delhi, Delhi NCT
92NDLSNew Delhi (16)X  19:40-20:10-30m221555.714215mNRNew Delhi, Delhi NCT
93DKZDelhi KishanGanj (2)  20:27-20:28-1m--21559.632220mNRSarai Rohilla, Delhi NCT
94SSBShakur BastiX  20:41-20:42-1m--21566.550216mNRPitampura, Delhi NCT
95NNONangloi  20:52 20:51-20:53-1 2m--21574.058219mNRJJ Colony No 1, Delhi NCT
96BGZBahadurgarh  21:06-21:07-1m--21586.572220mNRBahadurgarh, Haryana
97SPZSamplaX  21:22-21:23-1m--21604.450222mNRSampla, Haryana
98ROKRohtak Junction (3)  21:50-21:55-5m--21626.872220mNRRohtak, Haryana
99JNAJulana  22:23 22:21-22:24 22:22-1m--21658.247226mNRJulana, Haryana
100JINDJind Junction (3)  22:55-23:00-5m--21683.870222mNR126102., Haryana
101UCAUchana  23:16-23:17-1m--21702.565225mNRDistrict Jind, Haryana
102NRWNarwana Junction (4)  23:31-23:32-1m--21717.873235mNRWay to Narwana, Haryana
103TUNTohana (2)  23:53-23:54-1m--21743.235232mNRTohana, Haryana
104JHLJakhal Junction  00:15-00:25-10m--31755.443225mNRJakhal, Haryana
105BLZBudhladaX  01:06-01:07-1m--31785.048223mNRBudhlada, Punjab
106MSZMansa  01:27-01:28-1m--31801.149222mNRMansa, Punjab
107MAURMaur  01:51-01:52-1m--31819.847220mNRMaur Mandi, Punjab
108KTFKot Fatteh new halt!!X  02:12-02:13-1m--31835.419213mNRBathinda, Punjab
109BTIBathinda Junction (6)X  03:15-04:05-50m231855.476208mNRBathinda, Punjab
110GDBGiddarbaha  04:28 04:27-04:29-1 2m--31883.261200mNRGiddarbaha, Punjab
111MOTMalout (1)  04:46 04:45-04:47-1 2m131899.445194mNRMalaut, Punjab
112ABSAbohar  05:27 05:26-05:28-1 2m--31928.935186mNRAbohar, Punjab
113SGNRShri Ganganagar  07:00--331981.9-178mNWRSri Ganganagar, Rajasthan
Scroll to Top
Scroll to Bottom